Time;durP1;ratioP1;P1;durP2;ratioP2;P2;SDS_P1;SDS_P2;PMS_P1;PMS_P2;Temp;Humidity;BMP_temperature;BMP_pressure;BME280_temperature;BME280_humidity;BME280_pressure;Samples;Min_cycle;Max_cycle;Signal;HPM_P1;HPM_P2
2021/11/28 00:00:43;;;;;;;22.27;11.57;;;1.80;99.90;;;;;;5027845;28;20629;-63
2021/11/28 00:03:09;;;;;;;21.08;10.60;;;1.80;99.90;;;;;;5027713;28;20546;-64
2021/11/28 00:05:35;;;;;;;21.98;11.00;;;1.70;99.90;;;;;;5029586;28;20017;-63
2021/11/28 00:10:45;;;;;;;;;;;1.70;99.90;;;;;;5020024;28;20030;-64
2021/11/28 00:13:12;;;;;;;29.23;10.75;;;1.70;99.90;;;;;;5022071;28;19905;-64
2021/11/28 00:15:39;;;;;;;22.80;11.50;;;1.70;99.90;;;;;;5021111;28;20529;-63
2021/11/28 00:18:07;;;;;;;24.38;11.50;;;1.70;99.90;;;;;;5042600;23;20484;-62
2021/11/28 00:20:33;;;;;;;23.27;11.05;;;1.80;99.90;;;;;;5029039;28;20033;-64
2021/11/28 00:22:59;;;;;;;19.25;10.82;;;1.80;99.90;;;;;;5020947;28;20117;-63
2021/11/28 00:25:26;;;;;;;21.88;10.57;;;1.80;99.90;;;;;;5018436;28;20105;-63
2021/11/28 00:27:52;;;;;;;27.50;11.88;;;1.80;99.90;;;;;;5019855;28;20024;-63
2021/11/28 00:30:21;;;;;;;28.70;12.35;;;1.80;99.90;;;;;;5018857;28;20022;-63
2021/11/28 00:32:47;;;;;;;27.08;12.85;;;1.80;99.90;;;;;;5020371;28;20124;-63
2021/11/28 00:35:13;;;;;;;26.23;13.15;;;1.80;99.90;;;;;;5021998;28;20545;-63
2021/11/28 00:37:39;;;;;;;20.38;11.15;;;1.80;99.90;;;;;;5019657;28;20028;-64
2021/11/28 00:40:05;;;;;;;26.27;11.73;;;1.80;99.90;;;;;;5018428;28;20017;-63
2021/11/28 00:42:31;;;;;;;24.42;11.20;;;1.90;99.90;;;;;;5020217;28;20014;-62
2021/11/28 00:44:57;;;;;;;22.98;11.25;;;1.90;99.90;;;;;;5020491;28;20508;-63
2021/11/28 00:47:23;;;;;;;22.00;13.20;;;1.80;99.90;;;;;;5020691;28;20057;-63
2021/11/28 00:50:05;;;;;;;22.25;12.50;;;;;;;;;;5023319;28;20053;-63
2021/11/28 00:52:32;;;;;;;20.73;10.40;;;;;;;;;;5024500;28;20010;-63
2021/11/28 00:54:59;;;;;;;19.45;10.43;;;;;;;;;;5024509;28;20109;-63
2021/11/28 00:57:25;;;;;;;22.30;11.77;;;;;;;;;;5023481;28;20025;-63
2021/11/28 00:59:52;;;;;;;21.50;10.30;;;;;;;;;;5023531;28;20013;-63
2021/11/28 01:02:18;;;;;;;24.02;12.73;;;;;;;;;;5021802;28;20025;-62
2021/11/28 01:04:44;;;;;;;22.60;11.68;;;;;;;;;;5027388;28;20026;-63
2021/11/28 01:07:10;;;;;;;24.95;11.55;;;;;;;;;;5022585;28;20079;-63
2021/11/28 01:09:37;;;;;;;24.25;11.30;;;;;;;;;;5027186;28;20093;-63
2021/11/28 01:12:03;;;;;;;20.88;10.38;;;;;;;;;;5022967;28;20441;-63
2021/11/28 01:14:29;;;;;;;24.77;11.18;;;;;;;;;;5025614;28;20026;-63
2021/11/28 01:16:55;;;;;;;27.02;11.10;;;;;;;;;;5025065;28;20490;-63
2021/11/28 01:19:22;;;;;;;23.02;11.10;;;;;;;;;;5020662;28;20083;-64
2021/11/28 01:21:50;;;;;;;22.15;9.82;;;;;;;;;;5016951;28;20030;-63
2021/11/28 01:24:16;;;;;;;25.17;11.93;;;;;;;;;;5025807;28;20469;-63
2021/11/28 01:26:42;;;;;;;27.25;11.07;;;;;;;;;;5023003;28;20076;-63
2021/11/28 01:29:08;;;;;;;20.25;10.45;;;;;;;;;;5017852;28;20069;-65
2021/11/28 01:31:34;;;;;;;19.80;10.05;;;;;;;;;;5024120;28;20017;-63
2021/11/28 01:34:00;;;;;;;20.52;10.75;;;;;;;;;;5028121;28;20017;-63
2021/11/28 01:36:26;;;;;;;20.27;10.73;;;;;;;;;;5021012;28;20136;-63
2021/11/28 01:38:52;;;;;;;23.08;10.75;;;;;;;;;;5024278;28;20105;-63
2021/11/28 01:41:18;;;;;;;29.02;10.95;;;;;;;;;;5027644;28;20037;-64
2021/11/28 01:43:44;;;;;;;27.17;12.57;;;;;;;;;;5022287;28;20094;-63
2021/11/28 01:46:10;;;;;;;21.77;10.85;;;;;;;;;;5020883;28;20037;-63
2021/11/28 01:48:36;;;;;;;21.67;11.15;;;;;;;;;;5022268;28;20018;-63
2021/11/28 01:51:03;;;;;;;20.17;11.02;;;;;;;;;;5022298;28;20029;-62
2021/11/28 01:53:29;;;;;;;24.27;12.35;;;;;;;;;;5030141;28;20013;-63
2021/11/28 01:55:56;;;;;;;20.58;11.18;;;;;;;;;;5023218;28;20021;-63
2021/11/28 01:58:22;;;;;;;22.55;11.48;;;;;;;;;;5022376;28;20028;-63
2021/11/28 02:00:50;;;;;;;24.08;12.25;;;;;;;;;;5028994;28;20038;-64
2021/11/28 02:03:18;;;;;;;26.83;14.15;;;;;;;;;;5023258;28;20534;-63
2021/11/28 02:05:46;;;;;;;22.38;11.10;;;;;;;;;;5023277;28;20389;-65
2021/11/28 02:08:12;;;;;;;19.48;10.73;;;;;;;;;;5022571;28;20018;-64
2021/11/28 02:10:39;;;;;;;29.55;11.98;;;;;;;;;;5017844;28;20434;-62
2021/11/28 02:13:05;;;;;;;26.63;12.45;;;;;;;;;;5022754;28;20567;-63
2021/11/28 02:15:31;;;;;;;27.73;12.48;;;;;;;;;;5022959;28;20057;-62
2021/11/28 02:17:57;;;;;;;24.65;12.65;;;;;;;;;;5020050;28;20030;-62
2021/11/28 02:20:26;;;;;;;26.42;13.48;;;;;;;;;;5022872;28;20048;-62
2021/11/28 02:22:52;;;;;;;;;;;;;;;;;;5023079;28;20501;-64
2021/11/28 02:25:18;;;;;;;24.85;13.85;;;;;;;;;;5024277;28;19912;-63
2021/11/28 02:27:44;;;;;;;26.05;12.88;;;;;;;;;;5025125;28;20022;-62
2021/11/28 02:30:11;;;;;;;25.20;11.77;;;;;;;;;;5017226;28;20029;-63
2021/11/28 02:32:37;;;;;;;26.15;13.02;;;;;;;;;;5016097;28;20446;-63
2021/11/28 02:35:03;;;;;;;26.27;12.77;;;;;;;;;;5027280;28;20096;-64
2021/11/28 02:37:29;;;;;;;27.25;12.07;;;;;;;;;;5017693;28;20033;-63
2021/11/28 02:39:57;;;;;;;24.05;11.80;;;;;;;;;;5017876;28;20022;-64
2021/11/28 02:42:24;;;;;;;25.42;13.13;;;;;;;;;;5023113;28;20136;-65
2021/11/28 02:44:51;;;;;;;28.02;15.70;;;;;;;;;;5023259;28;20028;-63
2021/11/28 02:47:17;;;;;;;27.05;13.95;;;;;;;;;;5011248;28;20107;-63
2021/11/28 02:49:43;;;;;;;30.38;14.20;;;;;;;;;;5021387;28;20025;-62
2021/11/28 02:52:10;;;;;;;25.90;13.82;;;;;;;;;;5018644;28;20030;-63
2021/11/28 02:54:36;;;;;;;25.98;14.50;;;;;;;;;;5022353;28;20076;-63
2021/11/28 02:57:03;;;;;;;27.95;13.30;;;;;;;;;;5019533;28;20025;-62
2021/11/28 02:59:29;;;;;;;28.50;13.95;;;;;;;;;;5023245;28;20044;-63
2021/11/28 03:01:55;;;;;;;24.58;12.38;;;;;;;;;;5023157;28;20029;-63
2021/11/28 03:04:21;;;;;;;64.32;36.13;;;;;;;;;;5017973;28;20013;-62
2021/11/28 03:06:47;;;;;;;60.58;35.58;;;;;;;;;;5025279;28;20014;-63
2021/11/28 03:09:13;;;;;;;53.78;31.77;;;;;;;;;;5024252;28;20032;-63
2021/11/28 03:11:40;;;;;;;56.25;31.85;;;;;;;;;;5014909;28;20030;-64
2021/11/28 03:14:06;;;;;;;28.23;15.90;;;;;;;;;;5021042;28;20367;-63
2021/11/28 03:16:32;;;;;;;26.08;13.35;;;;;;;;;;5019650;28;20079;-60
2021/11/28 03:18:58;;;;;;;23.90;12.30;;;;;;;;;;5021092;28;20025;-63
2021/11/28 03:21:25;;;;;;;25.23;12.10;;;;;;;;;;5021362;28;20036;-64
2021/11/28 03:23:53;;;;;;;27.35;13.02;;;;;;;;;;5019078;28;20458;-63
2021/11/28 03:26:24;;;;;;;27.58;12.95;;;;;;;;;;5020769;28;20033;-64
2021/11/28 03:28:51;;;;;;;26.40;13.27;;;;;;;;;;5020802;28;20112;-63
2021/11/28 03:31:18;;;;;;;24.63;12.30;;;;;;;;;;5019293;28;20022;-63
2021/11/28 03:33:44;;;;;;;25.30;13.27;;;;;;;;;;5019788;28;20029;-63
2021/11/28 03:36:11;;;;;;;26.20;14.57;;;;;;;;;;5021168;28;20025;-64
2021/11/28 03:38:38;;;;;;;24.92;12.57;;;;;;;;;;5018906;28;20367;-64
2021/11/28 03:41:05;;;;;;;25.85;12.77;;;;;;;;;;5020711;28;20772;-63
2021/11/28 03:43:31;;;;;;;29.02;14.48;;;;;;;;;;5014876;28;20017;-63
2021/11/28 03:45:57;;;;;;;27.67;13.80;;;;;;;;;;5011546;28;20076;-63
2021/11/28 03:48:23;;;;;;;30.30;15.07;;;;;;;;;;5019612;28;20044;-63
2021/11/28 03:50:49;;;;;;;36.85;17.17;;;;;;;;;;5020683;28;20033;-63
2021/11/28 03:53:15;;;;;;;31.90;16.38;;;;;;;;;;5021728;28;20037;-64
2021/11/28 03:55:41;;;;;;;28.65;15.88;;;;;;;;;;5018309;28;20029;-62
2021/11/28 03:58:07;;;;;;;29.63;15.60;;;;;;;;;;5021183;28;20391;-62
2021/11/28 04:00:34;;;;;;;28.58;14.50;;;;;;;;;;5023410;28;20028;-63
2021/11/28 04:03:01;;;;;;;24.73;13.38;;;;;;;;;;5022798;28;20030;-63
2021/11/28 04:05:27;;;;;;;25.35;13.65;;;;;;;;;;5025313;28;20045;-63
2021/11/28 04:07:53;;;;;;;27.58;13.07;;;;;;;;;;5024066;28;20637;-64
2021/11/28 04:10:20;;;;;;;25.65;12.45;;;;;;;;;;5023819;28;20108;-62
2021/11/28 04:12:46;;;;;;;25.85;13.82;;;;;;;;;;5015122;28;20029;-63
2021/11/28 04:15:12;;;;;;;30.17;14.15;;;;;;;;;;5023428;28;20072;-63
2021/11/28 04:17:38;;;;;;;29.20;13.73;;;;;;;;;;5021814;28;20033;-63
2021/11/28 04:20:05;;;;;;;27.02;13.60;;;;;;;;;;5017957;28;20083;-64
2021/11/28 04:22:31;;;;;;;25.50;12.60;;;;;;;;;;5020042;28;20029;-64
2021/11/28 04:24:57;;;;;;;36.15;14.02;;;;;;;;;;5020818;28;20022;-62
2021/11/28 04:27:23;;;;;;;23.73;12.52;;;;;;;;;;5022834;28;20389;-63
2021/11/28 04:29:49;;;;;;;31.98;13.85;;;;;;;;;;5019378;28;20018;-64
2021/11/28 04:32:15;;;;;;;26.30;12.95;;;;;;;;;;5027072;28;20022;-63
2021/11/28 04:34:42;;;;;;;32.08;14.60;;;;;;;;;;5016387;28;20026;-64
2021/11/28 04:37:08;;;;;;;27.13;13.80;;;;;;;;;;5019355;28;20072;-63
2021/11/28 04:39:34;;;;;;;29.85;14.35;;;;;;;;;;5024855;28;20060;-63
2021/11/28 04:42:00;;;;;;;31.73;14.25;;;;;;;;;;5016192;28;20161;-63
2021/11/28 04:44:26;;;;;;;24.77;12.90;;;;;;;;;;5021171;28;20144;-64
2021/11/28 04:46:52;;;;;;;28.90;13.40;;;;;;;;;;5021576;28;20017;-62
2021/11/28 04:49:18;;;;;;;26.52;13.07;;;;;;;;;;5020518;28;20045;-62
2021/11/28 04:51:44;;;;;;;29.05;13.35;;;;;;;;;;5020954;28;20477;-63
2021/11/28 04:54:12;;;;;;;29.55;13.40;;;;;;;;;;5021515;28;20030;-64
2021/11/28 04:56:38;;;;;;;29.85;14.18;;;;;;;;;;5016261;28;20408;-63
2021/11/28 04:59:04;;;;;;;27.73;12.95;;;;;;;;;;5023507;28;20032;-63
2021/11/28 05:01:30;;;;;;;25.48;13.18;;;;;;;;;;5015093;28;20029;-63
2021/11/28 05:03:56;;;;;;;26.38;12.68;;;;;;;;;;5018463;28;20022;-63
2021/11/28 05:06:23;;;;;;;24.92;13.32;;;;;;;;;;5020130;28;20105;-63
2021/11/28 05:08:49;;;;;;;28.60;14.75;;;;;;;;;;5016827;28;20018;-63
2021/11/28 05:11:15;;;;;;;22.80;11.82;;;;;;;;;;5020491;28;20062;-63
2021/11/28 05:13:41;;;;;;;23.83;12.50;;;;;;;;;;5021878;28;20071;-63
2021/11/28 05:16:07;;;;;;;26.08;12.73;;;;;;;;;;5017153;28;20478;-63
2021/11/28 05:18:33;;;;;;;25.55;12.57;;;;;;;;;;5016762;28;20033;-63
2021/11/28 05:20:59;;;;;;;23.23;12.40;;;;;;;;;;5019325;28;20025;-63
2021/11/28 05:23:25;;;;;;;23.50;12.82;;;;;;;;;;5016234;28;20050;-63
2021/11/28 05:25:51;;;;;;;24.05;11.30;;;;;;;;;;5016177;28;20501;-63
2021/11/28 05:28:17;;;;;;;26.73;13.18;;;;;;;;;;5021033;28;20029;-62
2021/11/28 05:30:43;;;;;;;25.58;12.30;;;;;;;;;;5017044;28;20034;-63
2021/11/28 05:33:09;;;;;;;21.67;11.68;;;;;;;;;;5012489;28;20076;-62
2021/11/28 05:35:35;;;;;;;22.88;12.10;;;;;;;;;;5016250;28;20097;-64
2021/11/28 05:38:01;;;;;;;24.60;12.82;;;;;;;;;;5021676;28;20025;-62
2021/11/28 05:40:27;;;;;;;24.23;12.90;;;;;;;;;;5022428;28;20029;-62
2021/11/28 05:42:54;;;;;;;24.63;12.27;;;;;;;;;;5026416;28;20553;-64
2021/11/28 05:45:21;;;;;;;29.90;12.65;;;;;;;;;;5021382;28;20414;-62
2021/11/28 05:47:48;;;;;;;21.52;10.75;;;;;;;;;;5022308;28;20030;-65
2021/11/28 05:50:14;;;;;;;31.15;11.80;;;;;;;;;;5028568;28;20025;-64
2021/11/28 05:52:41;;;;;;;22.63;11.15;;;;;;;;;;5020986;28;20040;-63
2021/11/28 05:55:07;;;;;;;28.77;11.95;;;;;;;;;;5022358;28;20026;-63
2021/11/28 05:57:34;;;;;;;26.15;10.98;;;;;;;;;;5029277;28;20473;-65
2021/11/28 06:00:00;;;;;;;21.70;11.18;;;;;;;;;;5016004;28;20018;-63
2021/11/28 06:02:26;;;;;;;24.05;11.18;;;;;;;;;;5023906;28;20367;-63
2021/11/28 06:04:52;;;;;;;20.77;10.98;;;;;;;;;;5018977;28;20036;-63
2021/11/28 06:07:18;;;;;;;23.15;10.63;;;;;;;;;;5020573;28;20112;-65
2021/11/28 06:09:44;;;;;;;26.02;11.90;;;;;;;;;;5026802;28;20398;-64
2021/11/28 06:12:10;;;;;;;24.08;12.15;;;;;;;;;;5018944;28;20034;-64
2021/11/28 06:14:36;;;;;;;21.45;11.25;;;;;;;;;;5018726;28;20021;-63
2021/11/28 06:17:02;;;;;;;21.48;11.55;;;;;;;;;;5047372;22;20040;-63
2021/11/28 06:19:28;;;;;;;23.15;12.02;;;;;;;;;;5028977;28;20108;-64
2021/11/28 06:21:54;;;;;;;20.95;11.77;;;;;;;;;;5021393;28;20116;-63
2021/11/28 06:24:20;;;;;;;24.65;12.23;;;;;;;;;;5018054;28;20021;-63
2021/11/28 06:26:46;;;;;;;23.92;12.55;;;;;;;;;;5017368;28;20132;-63
2021/11/28 06:29:12;;;;;;;23.17;12.23;;;;;;;;;;5025844;28;20032;-63
2021/11/28 06:31:39;;;;;;;22.73;11.88;;;;;;;;;;5029203;28;20413;-63
2021/11/28 06:34:06;;;;;;;27.67;11.82;;;;;;;;;;5018126;28;20504;-63
2021/11/28 06:36:32;;;;;;;22.95;12.80;;;;;;;;;;5030565;28;20401;-63
2021/11/28 06:38:58;;;;;;;24.50;13.43;;;;;;;;;;5026792;28;20044;-63
2021/11/28 06:41:27;;;;;;;26.52;13.18;;;;;;;;;;5022616;28;20056;-63
2021/11/28 06:43:54;;;;;;;23.17;13.60;;;;;;;;;;5028860;28;20024;-63
2021/11/28 06:46:20;;;;;;;28.38;13.15;;;;;;;;;;5023353;28;20370;-63
2021/11/28 06:48:46;;;;;;;22.05;11.98;;;;;;;;;;5024454;28;20021;-63
2021/11/28 06:51:12;;;;;;;25.77;12.70;;;;;;;;;;5023279;28;20021;-63
2021/11/28 06:53:38;;;;;;;26.40;12.15;;;;;;;;;;5021473;28;20394;-63
2021/11/28 06:56:05;;;;;;;24.42;11.60;;;;;;;;;;5032422;28;20028;-63
2021/11/28 06:58:32;;;;;;;22.73;12.55;;;;;;;;;;5029335;28;20541;-63
2021/11/28 07:00:58;;;;;;;21.67;11.50;;;;;;;;;;5017943;28;20026;-63
2021/11/28 07:03:24;;;;;;;23.90;12.10;;;;;;;;;;5020191;28;20022;-63
2021/11/28 07:05:50;;;;;;;23.00;12.20;;;;;;;;;;5018750;28;20026;-64
2021/11/28 07:08:16;;;;;;;22.20;12.15;;;;;;;;;;5025072;28;20096;-64
2021/11/28 07:10:42;;;;;;;22.52;11.10;;;;;;;;;;5022110;28;20501;-64
2021/11/28 07:13:08;;;;;;;22.70;11.45;;;;;;;;;;5019518;28;20033;-63
2021/11/28 07:15:34;;;;;;;20.50;11.30;;;;;;;;;;5024466;28;20029;-63
2021/11/28 07:18:00;;;;;;;21.40;11.32;;;;;;;;;;5025504;28;20029;-63
2021/11/28 07:20:26;;;;;;;23.42;11.50;;;;;;;;;;5018176;28;20037;-63
2021/11/28 07:22:52;;;;;;;23.75;12.65;;;;;;;;;;5019383;28;20532;-63
2021/11/28 07:25:19;;;;;;;22.73;11.95;;;;;;;;;;5026122;28;20022;-63
2021/11/28 07:27:45;;;;;;;22.67;12.57;;;;;;;;;;5019037;28;20063;-63
2021/11/28 07:30:11;;;;;;;23.50;11.55;;;;;;;;;;5025639;28;20021;-64
2021/11/28 07:32:37;;;;;;;22.23;12.20;;;;;;;;;;5019844;28;20404;-63
2021/11/28 07:35:04;;;;;;;20.25;11.40;;;;;;;;;;5024353;28;20273;-63
2021/11/28 07:37:30;;;;;;;23.20;12.07;;;;;;;;;;5022731;28;20018;-63
2021/11/28 07:39:57;;;;;;;23.42;11.15;;;;;;;;;;5019265;28;20022;-63
2021/11/28 07:42:23;;;;;;;22.65;11.43;;;;;;;;;;5025189;28;20021;-62
2021/11/28 07:44:50;;;;;;;20.50;10.65;;;;;;;;;;5026877;28;20018;-63
2021/11/28 07:47:16;;;;;;;24.20;10.82;;;;;;;;;;5020255;28;20014;-63
2021/11/28 07:49:42;;;;;;;24.00;12.98;;;;;;;;;;5021783;28;20021;-62
2021/11/28 07:52:08;;;;;;;20.45;11.10;;;;;;;;;;5026156;28;20033;-63
2021/11/28 07:54:34;;;;;;;23.08;12.02;;;;;;;;;;5025318;28;20101;-63
2021/11/28 07:57:02;;;;;;;25.02;10.93;;;;;;;;;;5017613;28;20038;-63
2021/11/28 07:59:28;;;;;;;21.65;12.13;;;;;;;;;;5019200;28;20449;-63
2021/11/28 08:01:54;;;;;;;24.00;12.32;;;;;;;;;;5024210;28;20155;-62
2021/11/28 08:04:20;;;;;;;19.95;10.45;;;;;;;;;;5018322;28;20389;-63
2021/11/28 08:06:46;;;;;;;20.50;11.07;;;;;;;;;;5026967;28;20021;-63
2021/11/28 08:09:12;;;;;;;20.48;11.68;;;;;;;;;;5019164;28;20029;-63
2021/11/28 08:11:38;;;;;;;24.52;11.25;;;;;;;;;;5016886;28;20120;-63
2021/11/28 08:14:04;;;;;;;24.92;11.57;;;;;;;;;;5021351;28;20071;-63
2021/11/28 08:16:30;;;;;;;21.67;12.30;;;;;;;;;;5024671;28;20022;-63
2021/11/28 08:18:56;;;;;;;26.23;12.25;;;;;;;;;;5021071;28;20041;-63
2021/11/28 08:21:26;;;;;;;41.00;13.02;;;;;;;;;;5017020;28;20037;-62
2021/11/28 08:23:53;;;;;;;23.77;12.05;;;;;;;;;;5024200;28;20028;-69
2021/11/28 08:26:19;;;;;;;21.73;11.80;;;;;;;;;;5026884;28;20425;-67
2021/11/28 08:28:45;;;;;;;23.00;12.30;;;;;;;;;;5019447;28;20018;-66
2021/11/28 08:31:11;;;;;;;23.98;11.90;;;;;;;;;;5026040;28;20026;-66
2021/11/28 08:33:38;;;;;;;20.95;12.00;;;;;;;;;;5015519;28;20022;-67
2021/11/28 08:36:04;;;;;;;27.75;12.93;;;;;;;;;;5026968;28;20068;-68
2021/11/28 08:38:31;;;;;;;23.10;12.00;;;;;;;;;;5017676;28;20029;-67
2021/11/28 08:40:57;;;;;;;21.90;13.18;;;;;;;;;;5025455;28;20501;-66
2021/11/28 08:43:23;;;;;;;26.40;12.38;;;;;;;;;;5021789;28;20075;-67
2021/11/28 08:45:49;;;;;;;24.90;12.60;;;;;;;;;;5020595;28;20477;-67
2021/11/28 08:48:15;;;;;;;25.40;12.65;;;;;;;;;;5022007;28;20097;-67
2021/11/28 08:50:41;;;;;;;26.38;13.15;;;;;;;;;;5024835;28;20109;-67
2021/11/28 08:53:07;;;;;;;22.35;12.35;;;;;;;;;;5020484;28;20068;-68
2021/11/28 08:55:33;;;;;;;31.00;14.00;;;;;;;;;;5025732;28;20029;-66
2021/11/28 08:58:00;;;;;;;25.60;13.00;;;;;;;;;;5029334;28;20060;-66
2021/11/28 09:00:26;;;;;;;22.25;11.65;;;;;;;;;;5021678;28;20033;-67
2021/11/28 09:02:53;;;;;;;23.42;12.63;;;;;;;;;;5020523;28;20022;-67
2021/11/28 09:05:20;;;;;;;23.50;11.82;;;;;;;;;;5020755;28;20033;-67
2021/11/28 09:07:46;;;;;;;26.98;12.70;;;;;;;;;;5026811;28;20113;-67
2021/11/28 09:10:14;;;;;;;26.65;13.80;;;;;;;;;;5018933;28;20049;-67
2021/11/28 09:12:40;;;;;;;24.50;13.10;;;;;;;;;;5020224;28;20022;-64
2021/11/28 09:15:06;;;;;;;21.67;12.77;;;;;;;;;;5032514;28;20178;-64
2021/11/28 09:17:33;;;;;;;39.70;13.93;;;;;;;;;;5033891;28;20032;-63
2021/11/28 09:25:10;;;;;;;24.20;13.57;;;;;;;;;;5027902;28;20033;-63
2021/11/28 09:27:37;;;;;;;24.80;13.75;;;;;;;;;;5024218;28;20033;-62
2021/11/28 09:30:03;;;;;;;27.52;14.80;;;;;;;;;;5023490;28;20374;-62
2021/11/28 09:32:30;;;;;;;24.58;13.20;;;;;;;;;;5022943;28;20101;-62
2021/11/28 09:34:56;;;;;;;28.63;13.70;;;;;;;;;;5029335;28;20021;-62
2021/11/28 09:37:22;;;;;;;24.73;13.57;;;;;;;;;;5025535;28;20072;-62
2021/11/28 09:39:48;;;;;;;25.83;14.70;;;;;;;;;;5025178;28;20030;-62
2021/11/28 09:42:20;;;;;;;24.23;12.98;;;;;;;;;;5026616;28;20411;-62
2021/11/28 09:44:47;;;;;;;25.90;13.48;;;;;;;;;;5026580;28;20050;-61
2021/11/28 09:47:13;;;;;;;21.98;13.38;;;;;;;;;;5024055;28;20021;-64
2021/11/28 09:49:40;;;;;;;25.95;13.60;;;;;;;;;;5023117;28;20056;-63
2021/11/28 09:52:08;;;;;;;28.93;14.47;;;;;;;;;;5022016;28;20026;-63
2021/11/28 09:54:39;;;;;;;26.40;13.77;;;;;;;;;;5022544;28;20052;-62
2021/11/28 09:57:05;;;;;;;24.35;14.98;;;;;;;;;;5029405;28;20025;-62
2021/11/28 09:59:31;;;;;;;25.88;12.93;;;;;;;;;;5023189;28;20028;-63
2021/11/28 10:01:58;;;;;;;26.92;14.43;;;;;;;;;;5022264;28;20026;-62
2021/11/28 10:04:24;;;;;;;28.25;13.05;;;;;;;;;;5025860;28;20105;-62
2021/11/28 10:06:50;;;;;;;24.83;13.32;;;;;;;;;;5023513;28;20026;-61
2021/11/28 10:09:16;;;;;;;24.38;13.32;;;;;;;;;;5017740;28;20484;-61
2021/11/28 10:11:42;;;;;;;25.80;13.45;;;;;;;;;;5022038;28;20018;-62
2021/11/28 10:14:13;;;;;;;24.25;12.95;;;;;;;;;;5025898;28;20109;-62
2021/11/28 10:16:40;;;;;;;25.02;13.68;;;;;;;;;;5024853;28;20116;-63
2021/11/28 10:19:06;;;;;;;25.38;14.68;;;;;;;;;;5022209;28;20092;-62
2021/11/28 10:21:33;;;;;;;26.40;14.60;;;;;;;;;;5019307;28;20053;-62
2021/11/28 10:24:15;;;;;;;27.42;14.38;;;;;;;;;;5018887;28;20106;-61
2021/11/28 10:27:10;;;;;;;28.77;14.30;;;;;;;;;;5019828;28;20049;-62
2021/11/28 10:29:38;;;;;;;23.88;13.98;;;;;;;;;;5028414;28;20029;-63
2021/11/28 10:32:05;;;;;;;25.92;13.57;;;;;;;;;;5025111;28;20030;-62
2021/11/28 10:34:32;;;;;;;26.45;13.82;;;;;;;;;;5018150;28;20033;-61
2021/11/28 10:37:06;;;;;;;26.27;14.60;;;;;;;;;;5022683;28;20486;-62
2021/11/28 10:39:54;;;;;;;27.35;14.73;;;;;;;;;;5028152;28;20044;-61
2021/11/28 10:42:27;;;;;;;26.77;13.90;;;;;;;;;;5023978;28;20021;-62
2021/11/28 10:45:10;;;;;;;24.75;14.20;;;;;;;;;;5018743;28;20029;-62
2021/11/28 10:47:48;;;;;;;29.13;15.38;;;;;;;;;;5023260;28;20270;-63
2021/11/28 10:50:16;;;;;;;22.85;13.27;;;;;;;;;;5031889;28;20088;-62
2021/11/28 10:52:43;;;;;;;24.30;14.70;;;;;;;;;;5031978;28;20022;-62
2021/11/28 10:55:22;;;;;;;27.13;15.70;;;;;;;;;;5031574;28;20017;-62
2021/11/28 10:58:03;;;;;;;27.20;13.70;;;;;;;;;;5031944;28;20115;-61
2021/11/28 11:00:29;;;;;;;30.23;15.98;;;;;;;;;;5033136;28;20026;-61
2021/11/28 11:02:55;;;;;;;27.67;15.20;;;;;;;;;;5033373;28;20021;-62
2021/11/28 11:05:25;;;;;;;27.50;15.13;;;;;;;;;;5032116;28;20021;-62
2021/11/28 11:07:55;;;;;;;27.48;14.90;;;;;;;;;;5031795;28;20415;-62
2021/11/28 11:10:23;;;;;;;30.92;16.92;;;;;;;;;;5031913;28;20136;-62
2021/11/28 11:12:49;;;;;;;26.45;15.25;;;;;;;;;;5031751;28;20021;-61
2021/11/28 11:15:34;;;;;;;29.88;17.60;;;;;;;;;;5033080;28;20026;-61
2021/11/28 11:18:02;;;;;;;28.75;15.18;;;;;;;;;;5032855;28;20053;-62
2021/11/28 11:20:29;;;;;;;30.05;16.13;;;;;;;;;;5031511;28;20052;-62
2021/11/28 11:22:55;;;;;;;27.80;15.85;;;;;;;;;;5031329;28;20037;-61
2021/11/28 11:25:30;;;;;;;28.35;15.63;;;;;;;;;;5031434;28;20048;-61
2021/11/28 11:28:06;;;;;;;30.67;17.23;;;;;;;;;;5031465;28;20029;-62
2021/11/28 11:30:32;;;;;;;28.27;15.70;;;;;;;;;;5030581;28;20404;-62
2021/11/28 11:33:01;;;;;;;31.92;17.05;;;;;;;;;;5031121;28;20029;-62
2021/11/28 11:35:28;;;;;;;32.33;17.75;;;;;;;;;;5032750;28;20033;-62
2021/11/28 11:37:58;;;;;;;31.38;16.73;;;;;;;;;;5031118;28;20034;-62
2021/11/28 11:40:25;;;;;;;34.45;19.38;;;;;;;;;;5032407;28;20025;-61
2021/11/28 11:42:52;;;;;;;31.10;16.35;;;;;;;;;;5032466;28;20092;-62
2021/11/28 11:45:19;;;;;;;29.33;16.75;;;;;;;;;;5032730;28;20037;-62
2021/11/28 11:47:46;;;;;;;33.40;18.48;;;;;;;;;;5031230;28;20029;-62
2021/11/28 11:50:13;;;;;;;30.58;18.48;;;;;;;;;;5032539;28;20041;-62
2021/11/28 11:52:39;;;;;;;32.80;17.95;;;;;;;;;;5032100;28;20026;-63
2021/11/28 11:55:17;;;;;;;30.35;17.23;;;;;;;;;;5031458;28;20028;-60
2021/11/28 11:57:46;;;;;;;27.43;16.00;;;;;;;;;;5032838;28;20099;-63
2021/11/28 12:00:33;;;;;;;33.28;17.20;;;;;;;;;;5032482;28;20453;-62
2021/11/28 12:03:11;;;;;;;31.52;15.73;;;;;;;;;;5030991;28;20503;-61
2021/11/28 12:05:39;;;;;;;34.58;19.23;;;;;;;;;;5030693;28;20025;-61
2021/11/28 12:08:08;;;;;;;29.80;16.10;;;;;;;;;;5030962;28;20025;-61
2021/11/28 12:10:34;;;;;;;30.13;15.95;;;;;;;;;;5032146;28;20025;-62
2021/11/28 12:13:02;;;;;;;31.20;16.13;;;;;;;;;;5032221;28;20482;-62
2021/11/28 12:15:39;;;;;;;27.80;15.80;;;;;;;;;;5032432;28;20029;-61
2021/11/28 12:18:06;;;;;;;26.52;16.23;;;;;;;;;;5031723;28;20034;-61
2021/11/28 12:20:44;;;;;;;28.55;16.08;;;;;;;;;;5030865;28;20033;-62
2021/11/28 12:23:33;;;;;;;29.17;16.85;;;;;;;;;;5030727;28;20201;-62
2021/11/28 12:25:59;;;;;;;31.25;17.73;;;;;;;;;;5030639;28;20036;-62
2021/11/28 12:28:29;;;;;;;31.45;15.23;;;;;;;;;;5030706;28;20022;-62
2021/11/28 12:30:59;;;;;;;27.15;15.20;;;;;;;;;;5031987;28;20026;-61
2021/11/28 12:33:52;;;;;;;34.22;18.17;;;;;;;;;;5030434;28;20048;-62
2021/11/28 12:36:33;;;;;;;31.50;16.30;;;;;;;;;;5031860;28;20032;-62
2021/11/28 12:39:05;;;;;;;30.08;15.80;;;;;;;;;;5031636;28;20032;-62
2021/11/28 12:41:43;;;;;;;32.47;16.17;;;;;;;;;;5030479;28;20037;-62
2021/11/28 12:44:10;;;;;;;35.33;16.27;;;;;;;;;;5035954;28;20490;-62
2021/11/28 12:46:43;;;;;;;33.13;17.25;;;;;;;;;;5034361;28;20026;-63
2021/11/28 12:49:25;;;;;;;37.92;18.77;;;;;;;;;;5034656;28;20382;-62
2021/11/28 12:51:52;;;;;;;29.05;14.90;;;;;;;;;;5035361;28;20026;-62
2021/11/28 12:54:25;;;;;;;31.60;17.38;;;;;;;;;;5034385;28;20044;-63
2021/11/28 12:57:10;;;;;;;31.23;16.08;;;;;;;;;;5035567;28;20067;-61
2021/11/28 12:59:36;;;;;;;26.92;14.30;;;;;;;;;;5034194;28;20072;-61
2021/11/28 13:02:02;;;;;;;26.77;13.38;;;;;;;;;;5035107;28;20061;-61
2021/11/28 13:04:58;;;;;;;32.40;16.42;;;;;;;;;;5034115;28;20075;-62
2021/11/28 13:07:34;;;;;;;27.35;14.40;;;;;;;;;;5026316;28;20103;-62
2021/11/28 13:10:20;;;;;;;28.60;15.77;;;;;;;;;;5035333;28;20079;-62
2021/11/28 13:12:46;;;;;;;29.75;15.23;;;;;;;;;;5035169;28;20025;-62
2021/11/28 13:15:23;;;;;;;31.60;16.05;;;;;;;;;;5034219;28;20113;-61
2021/11/28 13:17:49;;;;;;;31.55;17.65;;;;;;;;;;5033885;28;20029;-62
2021/11/28 13:20:15;;;;;;;30.38;16.83;;;;;;;;;;5034878;28;20092;-62
2021/11/28 13:22:42;;;;;;;32.92;18.45;;;;;;;;;;5034452;28;20538;-63
2021/11/28 13:25:24;;;;;;;33.25;16.27;;;;;;;;;;5035123;28;20520;-61
2021/11/28 13:27:50;;;;;;;31.95;16.77;;;;;;;;;;5035177;28;20036;-61
2021/11/28 13:30:20;;;;;;;31.38;15.88;;;;;;;;;;5035050;28;20397;-61
2021/11/28 13:32:46;;;;;;;28.13;14.57;;;;;;;;;;5033455;28;20029;-61
2021/11/28 13:35:13;;;;;;;29.95;16.38;;;;;;;;;;5034877;28;20017;-61
2021/11/28 13:37:39;;;;;;;27.15;15.60;;;;;;;;;;5034659;28;20029;-62
2021/11/28 13:40:11;;;;;;;29.13;15.88;;;;;;;;;;5033557;28;20036;-62
2021/11/28 13:42:44;;;;;;;29.55;16.33;;;;;;;;;;5034408;28;20021;-62
2021/11/28 13:45:13;;;;;;;31.15;16.70;;;;;;;;;;5035062;28;20147;-62
2021/11/28 13:47:39;;;;;;;27.42;16.00;;;;;;;;;;5033525;28;20028;-59
2021/11/28 13:50:09;;;;;;;26.80;15.27;;;;;;;;;;5033458;28;20389;-61
2021/11/28 13:52:36;;;;;;;28.85;15.75;;;;;;;;;;5033473;28;20083;-61
2021/11/28 13:55:02;;;;;;;29.73;17.65;;;;;;;;;;5033795;28;20485;-61
2021/11/28 13:57:28;;;;;;;29.58;15.38;;;;;;;;;;5034759;28;20049;-61
2021/11/28 13:59:55;;;;;;;30.33;15.75;;;;;;;;;;5033589;28;20033;-61
2021/11/28 14:02:35;;;;;;;28.08;14.77;;;;;;;;;;5033236;28;20056;-62
2021/11/28 14:05:06;;;;;;;30.15;16.80;;;;;;;;;;5034568;28;20433;-61
2021/11/28 14:07:35;;;;;;;28.10;15.18;;;;;;;;;;5034089;28;20394;-61
2021/11/28 14:10:10;;;;;;;32.05;16.17;;;;;;;;;;5033134;28;20056;-63
2021/11/28 14:12:37;;;;;;;29.98;16.27;;;;;;;;;;5032537;28;20453;-61
2021/11/28 14:15:13;;;;;;;28.67;14.95;;;;;;;;;;5032878;28;20048;-61
2021/11/28 14:17:39;;;;;;;29.40;16.80;;;;;;;;;;5032692;28;20037;-61
2021/11/28 14:20:08;;;;;;;31.13;17.95;;;;;;;;;;5034306;28;20033;-60
2021/11/28 14:22:38;;;;;;;28.30;15.35;;;;;;;;;;5034078;28;20109;-62